Airfield :
LOGIN :

Register | Disclaimer

   EN    FR    IT 

 










Legend :    VFR   Marginal VFR   IFR   Intensive IFR   Very Intensive IFR
Visi :
Ceiling :
>= 8 km
>= 3000ft
5 to 8 km
1000 to 3000 ft
1500m to 5 km
500 to 1000 ft
800 to 1500m
200 to 500 ft
< 800m
< 200 ft
Symbols :   Thunderstorms  Fog  Heavy snow  Heavy precipitations  Wind > 20 kt
SIGMETs :     Misc.  Thunderstorms  Icing  Turbulence  Mountain Waves  Volcanic Ashes







- Airport Elevation : 863 ft
- IATA code : ZAZ


LEZG - Zaragoza Aragon

CURRENT METAR :
  • 222000Z 09007KT 9999 FEW080 19/11 Q1016

EXPIRED METARs :
  • 221930Z VRB02KT 9999 FEW080 19/11 Q1016
  • 221900Z 12005KT 9999 FEW080 19/11 Q1016
  • 221830Z VRB02KT 9999 FEW080 20/11 Q1016
  • 221800Z 07004KT 9999 FEW075 20/11 Q1016
  • 221730Z 29006KT 260V320 9999 FEW070TCU 21/11 Q1016

TAF TAF LEZG
Valid from the 22 at 18:00 until the 23 at 18:00 UTC


221700Z 2218/2318 13006KT 9999 FEW060 TX24/2314Z TN12/2306Z
PROB30
TEMPO 2218/2220 3000 TSRA FEW070CB
PROB40
TEMPO 2218/2312 FEW070CB
No reported NOTAMs for that airfield.
2 SIGMETs reported for the Madrid FIR (LECM) :
 
Embedded thunderstorms
LECM SIGMET 13 VALID 221918/222115 LEVA
LECM MADRID FIR/UIR EMBD TS OBS AT 1916Z WI N3554 W00631 - N3558 W00421 - N3858 W00420 - N3859 W00628 - N3554 W00631 TOP FL360 MOV N 20KT NC=
Embedded thunderstorms
LECM SIGMET 12 VALID 221900/222100 LEVA
LECM MADRID FIR/UIR EMBD TS OBS AT 1846Z WI N4208 W00051 - N4252 W00041 - N4347 W00228 - N4417 W004 - N4240 W00425 - N4208 W00051 TOP FL360 MOV NE 20KT NC=



MET'MAP, your aeronautical weather chart ! - Copyright ORBIFLY December 2007 - Disclaimer

ORBIFLY MET'MAP TEAM :

Programming & Development : Alexandra Zaïnal
Concept & Development : Baudouin d'Aumeries
Co-Development & Prog : Marc-Olivier Méhu
Technical & hardware support : Manuel Goepfert

Contact : metmap@orbifly.com




SOURCES & CREDITS :

   NOAA